sensor_id;sensor_type;location;lat;lon;timestamp;P1;durP1;ratioP1;P2;durP2;ratioP2
7883;SDS011;3987;51.458;7.238;2022-10-31T00:02:03;10.17;;;8.87;;
7883;SDS011;3987;51.458;7.238;2022-10-31T00:04:28;11.73;;;8.90;;
7883;SDS011;3987;51.458;7.238;2022-10-31T00:06:54;11.87;;;8.83;;
7883;SDS011;3987;51.458;7.238;2022-10-31T00:09:19;10.57;;;9.10;;
7883;SDS011;3987;51.458;7.238;2022-10-31T00:11:44;8.90;;;8.20;;
7883;SDS011;3987;51.458;7.238;2022-10-31T00:14:10;9.37;;;8.60;;
7883;SDS011;3987;51.458;7.238;2022-10-31T00:16:35;12.93;;;8.57;;
7883;SDS011;3987;51.458;7.238;2022-10-31T00:19:01;9.47;;;8.60;;
7883;SDS011;3987;51.458;7.238;2022-10-31T00:21:28;11.00;;;8.03;;
7883;SDS011;3987;51.458;7.238;2022-10-31T00:23:54;11.63;;;8.40;;
7883;SDS011;3987;51.458;7.238;2022-10-31T00:26:20;13.47;;;9.20;;
7883;SDS011;3987;51.458;7.238;2022-10-31T00:28:46;16.27;;;8.37;;
7883;SDS011;3987;51.458;7.238;2022-10-31T00:31:12;10.07;;;8.90;;
7883;SDS011;3987;51.458;7.238;2022-10-31T00:33:38;9.23;;;8.20;;
7883;SDS011;3987;51.458;7.238;2022-10-31T00:36:04;8.77;;;7.87;;
7883;SDS011;3987;51.458;7.238;2022-10-31T00:38:31;14.27;;;8.97;;
7883;SDS011;3987;51.458;7.238;2022-10-31T00:40:57;11.30;;;9.03;;
7883;SDS011;3987;51.458;7.238;2022-10-31T00:43:22;11.90;;;8.47;;
7883;SDS011;3987;51.458;7.238;2022-10-31T00:45:47;9.87;;;8.93;;
7883;SDS011;3987;51.458;7.238;2022-10-31T00:48:13;10.43;;;8.10;;
7883;SDS011;3987;51.458;7.238;2022-10-31T00:50:38;9.60;;;8.50;;
7883;SDS011;3987;51.458;7.238;2022-10-31T00:53:04;11.70;;;8.10;;
7883;SDS011;3987;51.458;7.238;2022-10-31T00:55:29;10.00;;;8.07;;
7883;SDS011;3987;51.458;7.238;2022-10-31T00:57:55;9.40;;;7.27;;
7883;SDS011;3987;51.458;7.238;2022-10-31T01:00:21;11.57;;;7.67;;
7883;SDS011;3987;51.458;7.238;2022-10-31T01:02:47;8.17;;;7.33;;
7883;SDS011;3987;51.458;7.238;2022-10-31T01:05:12;9.47;;;7.80;;
7883;SDS011;3987;51.458;7.238;2022-10-31T01:07:39;9.60;;;8.20;;
7883;SDS011;3987;51.458;7.238;2022-10-31T01:10:07;13.43;;;7.97;;
7883;SDS011;3987;51.458;7.238;2022-10-31T01:12:37;12.37;;;7.93;;
7883;SDS011;3987;51.458;7.238;2022-10-31T01:15:04;8.07;;;7.33;;
7883;SDS011;3987;51.458;7.238;2022-10-31T01:17:30;9.60;;;7.50;;
7883;SDS011;3987;51.458;7.238;2022-10-31T01:19:55;8.70;;;7.80;;
7883;SDS011;3987;51.458;7.238;2022-10-31T01:22:21;10.03;;;7.97;;
7883;SDS011;3987;51.458;7.238;2022-10-31T01:24:46;8.30;;;7.67;;
7883;SDS011;3987;51.458;7.238;2022-10-31T01:27:11;9.83;;;8.43;;
7883;SDS011;3987;51.458;7.238;2022-10-31T01:29:37;12.07;;;9.37;;
7883;SDS011;3987;51.458;7.238;2022-10-31T01:32:02;13.33;;;8.77;;
7883;SDS011;3987;51.458;7.238;2022-10-31T01:34:28;10.27;;;8.40;;
7883;SDS011;3987;51.458;7.238;2022-10-31T01:36:53;9.23;;;8.30;;
7883;SDS011;3987;51.458;7.238;2022-10-31T01:39:20;13.40;;;8.27;;
7883;SDS011;3987;51.458;7.238;2022-10-31T01:41:47;8.60;;;7.97;;
7883;SDS011;3987;51.458;7.238;2022-10-31T01:47:03;12.73;;;8.80;;
7883;SDS011;3987;51.458;7.238;2022-10-31T01:49:43;10.53;;;9.53;;
7883;SDS011;3987;51.458;7.238;2022-10-31T01:52:25;9.63;;;8.57;;
7883;SDS011;3987;51.458;7.238;2022-10-31T01:54:53;11.70;;;9.73;;
7883;SDS011;3987;51.458;7.238;2022-10-31T01:57:29;13.03;;;9.30;;
7883;SDS011;3987;51.458;7.238;2022-10-31T01:59:56;15.13;;;8.83;;
7883;SDS011;3987;51.458;7.238;2022-10-31T02:02:23;9.60;;;8.67;;
7883;SDS011;3987;51.458;7.238;2022-10-31T02:04:50;9.73;;;8.47;;
7883;SDS011;3987;51.458;7.238;2022-10-31T02:07:18;13.40;;;8.73;;
7883;SDS011;3987;51.458;7.238;2022-10-31T02:10:00;8.97;;;8.13;;
7883;SDS011;3987;51.458;7.238;2022-10-31T02:12:26;9.93;;;8.13;;
7883;SDS011;3987;51.458;7.238;2022-10-31T02:14:57;12.60;;;7.67;;
7883;SDS011;3987;51.458;7.238;2022-10-31T02:17:24;12.33;;;8.63;;
7883;SDS011;3987;51.458;7.238;2022-10-31T02:22:35;8.87;;;8.17;;
7883;SDS011;3987;51.458;7.238;2022-10-31T02:28:18;10.47;;;8.83;;
7883;SDS011;3987;51.458;7.238;2022-10-31T02:31:12;13.30;;;8.93;;
7883;SDS011;3987;51.458;7.238;2022-10-31T02:33:48;9.57;;;8.20;;
7883;SDS011;3987;51.458;7.238;2022-10-31T02:36:21;11.30;;;8.67;;
7883;SDS011;3987;51.458;7.238;2022-10-31T02:38:51;11.57;;;8.37;;
7883;SDS011;3987;51.458;7.238;2022-10-31T02:41:37;9.47;;;8.60;;
7883;SDS011;3987;51.458;7.238;2022-10-31T02:46:49;8.57;;;7.70;;
7883;SDS011;3987;51.458;7.238;2022-10-31T02:49:20;13.90;;;9.60;;
7883;SDS011;3987;51.458;7.238;2022-10-31T02:51:52;13.17;;;8.93;;
7883;SDS011;3987;51.458;7.238;2022-10-31T02:54:19;9.90;;;8.97;;
7883;SDS011;3987;51.458;7.238;2022-10-31T02:56:51;10.90;;;9.83;;
7883;SDS011;3987;51.458;7.238;2022-10-31T02:59:20;11.53;;;9.10;;
7883;SDS011;3987;51.458;7.238;2022-10-31T03:07:21;10.10;;;9.10;;
7883;SDS011;3987;51.458;7.238;2022-10-31T03:10:20;9.97;;;8.97;;
7883;SDS011;3987;51.458;7.238;2022-10-31T03:13:15;20.67;;;10.60;;
7883;SDS011;3987;51.458;7.238;2022-10-31T03:15:51;11.07;;;9.50;;
7883;SDS011;3987;51.458;7.238;2022-10-31T03:18:25;11.93;;;10.23;;
7883;SDS011;3987;51.458;7.238;2022-10-31T03:20:59;11.73;;;9.20;;
7883;SDS011;3987;51.458;7.238;2022-10-31T03:23:26;16.13;;;10.17;;
7883;SDS011;3987;51.458;7.238;2022-10-31T03:25:52;12.43;;;9.40;;
7883;SDS011;3987;51.458;7.238;2022-10-31T03:28:25;9.20;;;8.30;;
7883;SDS011;3987;51.458;7.238;2022-10-31T03:30:55;10.73;;;9.27;;
7883;SDS011;3987;51.458;7.238;2022-10-31T03:33:24;12.40;;;8.93;;
7883;SDS011;3987;51.458;7.238;2022-10-31T03:35:55;13.23;;;8.80;;
7883;SDS011;3987;51.458;7.238;2022-10-31T03:38:22;11.07;;;9.60;;
7883;SDS011;3987;51.458;7.238;2022-10-31T03:40:48;10.43;;;8.87;;
7883;SDS011;3987;51.458;7.238;2022-10-31T03:43:19;13.27;;;8.60;;
7883;SDS011;3987;51.458;7.238;2022-10-31T03:45:47;13.40;;;8.97;;
7883;SDS011;3987;51.458;7.238;2022-10-31T03:48:13;15.40;;;9.70;;
7883;SDS011;3987;51.458;7.238;2022-10-31T03:53:38;13.23;;;8.40;;
7883;SDS011;3987;51.458;7.238;2022-10-31T03:56:09;15.17;;;8.97;;
7883;SDS011;3987;51.458;7.238;2022-10-31T03:58:43;13.97;;;8.70;;
7883;SDS011;3987;51.458;7.238;2022-10-31T04:01:13;9.90;;;8.73;;
7883;SDS011;3987;51.458;7.238;2022-10-31T04:03:41;11.20;;;8.40;;
7883;SDS011;3987;51.458;7.238;2022-10-31T04:06:09;11.13;;;8.13;;
7883;SDS011;3987;51.458;7.238;2022-10-31T04:08:48;9.60;;;8.63;;
7883;SDS011;3987;51.458;7.238;2022-10-31T04:11:19;9.50;;;7.27;;
7883;SDS011;3987;51.458;7.238;2022-10-31T04:13:57;9.67;;;8.40;;
7883;SDS011;3987;51.458;7.238;2022-10-31T04:16:25;8.50;;;7.63;;
7883;SDS011;3987;51.458;7.238;2022-10-31T04:18:51;12.03;;;9.10;;
7883;SDS011;3987;51.458;7.238;2022-10-31T04:21:17;10.07;;;8.40;;
7883;SDS011;3987;51.458;7.238;2022-10-31T04:23:42;8.63;;;7.87;;
7883;SDS011;3987;51.458;7.238;2022-10-31T04:26:23;9.60;;;8.53;;
7883;SDS011;3987;51.458;7.238;2022-10-31T04:28:50;12.97;;;8.30;;
7883;SDS011;3987;51.458;7.238;2022-10-31T04:31:16;9.13;;;8.50;;
7883;SDS011;3987;51.458;7.238;2022-10-31T04:33:43;9.10;;;8.13;;
7883;SDS011;3987;51.458;7.238;2022-10-31T04:36:09;9.07;;;8.30;;
7883;SDS011;3987;51.458;7.238;2022-10-31T04:38:36;8.47;;;7.87;;
7883;SDS011;3987;51.458;7.238;2022-10-31T04:41:08;9.37;;;8.50;;
7883;SDS011;3987;51.458;7.238;2022-10-31T04:43:52;12.83;;;8.70;;
7883;SDS011;3987;51.458;7.238;2022-10-31T04:46:17;9.93;;;8.67;;
7883;SDS011;3987;51.458;7.238;2022-10-31T04:48:43;12.20;;;8.77;;
7883;SDS011;3987;51.458;7.238;2022-10-31T04:51:09;13.17;;;8.90;;
7883;SDS011;3987;51.458;7.238;2022-10-31T04:53:35;12.87;;;9.43;;
7883;SDS011;3987;51.458;7.238;2022-10-31T04:56:19;10.73;;;8.20;;
7883;SDS011;3987;51.458;7.238;2022-10-31T04:58:47;9.20;;;8.37;;
7883;SDS011;3987;51.458;7.238;2022-10-31T05:01:12;13.50;;;8.63;;
7883;SDS011;3987;51.458;7.238;2022-10-31T05:03:38;8.53;;;7.57;;
7883;SDS011;3987;51.458;7.238;2022-10-31T05:06:05;11.60;;;8.83;;
7883;SDS011;3987;51.458;7.238;2022-10-31T05:08:31;9.10;;;8.43;;
7883;SDS011;3987;51.458;7.238;2022-10-31T05:10:59;12.63;;;9.40;;
7883;SDS011;3987;51.458;7.238;2022-10-31T05:13:28;11.03;;;9.97;;
7883;SDS011;3987;51.458;7.238;2022-10-31T05:16:11;12.27;;;8.80;;
7883;SDS011;3987;51.458;7.238;2022-10-31T05:18:56;10.23;;;9.00;;
7883;SDS011;3987;51.458;7.238;2022-10-31T05:21:54;10.90;;;8.27;;
7883;SDS011;3987;51.458;7.238;2022-10-31T05:24:19;10.67;;;8.73;;
7883;SDS011;3987;51.458;7.238;2022-10-31T05:26:47;12.10;;;9.50;;
7883;SDS011;3987;51.458;7.238;2022-10-31T05:29:13;13.83;;;8.93;;
7883;SDS011;3987;51.458;7.238;2022-10-31T05:31:38;9.37;;;8.77;;
7883;SDS011;3987;51.458;7.238;2022-10-31T05:34:06;12.60;;;8.80;;
7883;SDS011;3987;51.458;7.238;2022-10-31T05:36:44;12.33;;;8.97;;
7883;SDS011;3987;51.458;7.238;2022-10-31T05:39:21;10.03;;;8.90;;
7883;SDS011;3987;51.458;7.238;2022-10-31T05:41:49;11.53;;;8.77;;
7883;SDS011;3987;51.458;7.238;2022-10-31T05:44:19;15.67;;;9.33;;
7883;SDS011;3987;51.458;7.238;2022-10-31T05:47:10;12.83;;;8.73;;
7883;SDS011;3987;51.458;7.238;2022-10-31T05:50:02;13.17;;;10.17;;
7883;SDS011;3987;51.458;7.238;2022-10-31T05:53:22;11.60;;;10.50;;
7883;SDS011;3987;51.458;7.238;2022-10-31T05:55:41;10.17;;;9.20;;
7883;SDS011;3987;51.458;7.238;2022-10-31T05:58:11;10.73;;;9.83;;
7883;SDS011;3987;51.458;7.238;2022-10-31T06:00:38;12.17;;;10.23;;
7883;SDS011;3987;51.458;7.238;2022-10-31T06:03:07;13.50;;;10.43;;
7883;SDS011;3987;51.458;7.238;2022-10-31T06:05:40;11.90;;;10.70;;
7883;SDS011;3987;51.458;7.238;2022-10-31T06:08:06;11.40;;;10.23;;
7883;SDS011;3987;51.458;7.238;2022-10-31T06:10:31;9.80;;;9.07;;
7883;SDS011;3987;51.458;7.238;2022-10-31T06:12:57;13.10;;;10.33;;
7883;SDS011;3987;51.458;7.238;2022-10-31T06:15:36;11.63;;;10.43;;
7883;SDS011;3987;51.458;7.238;2022-10-31T06:18:03;12.87;;;9.80;;
7883;SDS011;3987;51.458;7.238;2022-10-31T06:20:33;10.83;;;9.73;;
7883;SDS011;3987;51.458;7.238;2022-10-31T06:23:03;13.40;;;10.60;;
7883;SDS011;3987;51.458;7.238;2022-10-31T06:25:30;14.07;;;10.13;;
7883;SDS011;3987;51.458;7.238;2022-10-31T06:27:56;11.37;;;10.27;;
7883;SDS011;3987;51.458;7.238;2022-10-31T06:30:27;11.13;;;9.90;;
7883;SDS011;3987;51.458;7.238;2022-10-31T06:32:52;11.97;;;9.57;;
7883;SDS011;3987;51.458;7.238;2022-10-31T06:35:18;14.77;;;11.27;;
7883;SDS011;3987;51.458;7.238;2022-10-31T06:37:53;14.67;;;10.13;;
7883;SDS011;3987;51.458;7.238;2022-10-31T06:40:27;24.10;;;11.60;;
7883;SDS011;3987;51.458;7.238;2022-10-31T06:43:13;15.30;;;11.20;;
7883;SDS011;3987;51.458;7.238;2022-10-31T06:45:40;16.87;;;10.83;;
7883;SDS011;3987;51.458;7.238;2022-10-31T06:48:07;20.97;;;11.70;;
7883;SDS011;3987;51.458;7.238;2022-10-31T06:50:37;12.00;;;10.63;;
7883;SDS011;3987;51.458;7.238;2022-10-31T06:53:02;14.07;;;10.10;;
7883;SDS011;3987;51.458;7.238;2022-10-31T06:55:28;14.67;;;11.13;;
7883;SDS011;3987;51.458;7.238;2022-10-31T06:57:55;16.93;;;11.83;;
7883;SDS011;3987;51.458;7.238;2022-10-31T07:00:22;15.93;;;11.17;;
7883;SDS011;3987;51.458;7.238;2022-10-31T07:03:02;17.70;;;11.33;;
7883;SDS011;3987;51.458;7.238;2022-10-31T07:05:29;14.00;;;11.37;;
7883;SDS011;3987;51.458;7.238;2022-10-31T07:07:59;17.20;;;11.13;;
7883;SDS011;3987;51.458;7.238;2022-10-31T07:10:27;17.73;;;11.60;;
7883;SDS011;3987;51.458;7.238;2022-10-31T07:12:59;13.20;;;11.10;;
7883;SDS011;3987;51.458;7.238;2022-10-31T07:15:35;20.43;;;11.87;;
7883;SDS011;3987;51.458;7.238;2022-10-31T07:18:02;16.33;;;11.07;;
7883;SDS011;3987;51.458;7.238;2022-10-31T07:20:29;15.30;;;11.17;;
7883;SDS011;3987;51.458;7.238;2022-10-31T07:22:56;20.00;;;11.70;;
7883;SDS011;3987;51.458;7.238;2022-10-31T07:25:22;18.63;;;11.83;;
7883;SDS011;3987;51.458;7.238;2022-10-31T07:28:03;19.13;;;12.03;;
7883;SDS011;3987;51.458;7.238;2022-10-31T07:30:28;16.17;;;10.90;;
7883;SDS011;3987;51.458;7.238;2022-10-31T07:32:55;18.13;;;12.87;;
7883;SDS011;3987;51.458;7.238;2022-10-31T07:35:22;21.73;;;11.93;;
7883;SDS011;3987;51.458;7.238;2022-10-31T07:37:55;15.23;;;12.13;;
7883;SDS011;3987;51.458;7.238;2022-10-31T07:40:22;23.13;;;13.40;;
7883;SDS011;3987;51.458;7.238;2022-10-31T07:42:49;18.10;;;12.80;;
7883;SDS011;3987;51.458;7.238;2022-10-31T07:45:43;18.87;;;12.13;;
7883;SDS011;3987;51.458;7.238;2022-10-31T07:48:34;23.93;;;11.77;;
7883;SDS011;3987;51.458;7.238;2022-10-31T07:51:20;19.67;;;13.10;;
7883;SDS011;3987;51.458;7.238;2022-10-31T07:54:04;16.93;;;12.03;;
7883;SDS011;3987;51.458;7.238;2022-10-31T07:56:30;16.43;;;13.10;;
7883;SDS011;3987;51.458;7.238;2022-10-31T07:58:56;20.17;;;12.47;;
7883;SDS011;3987;51.458;7.238;2022-10-31T08:01:21;14.07;;;11.90;;
7883;SDS011;3987;51.458;7.238;2022-10-31T08:04:04;16.93;;;11.93;;
7883;SDS011;3987;51.458;7.238;2022-10-31T08:06:56;25.30;;;12.50;;
7883;SDS011;3987;51.458;7.238;2022-10-31T08:09:28;13.93;;;11.57;;
7883;SDS011;3987;51.458;7.238;2022-10-31T08:11:57;22.77;;;13.33;;
7883;SDS011;3987;51.458;7.238;2022-10-31T08:14:22;16.97;;;12.17;;
7883;SDS011;3987;51.458;7.238;2022-10-31T08:16:50;18.53;;;12.23;;
7883;SDS011;3987;51.458;7.238;2022-10-31T08:19:16;20.73;;;12.53;;
7883;SDS011;3987;51.458;7.238;2022-10-31T08:21:42;20.00;;;11.97;;
7883;SDS011;3987;51.458;7.238;2022-10-31T08:24:07;20.60;;;13.43;;
7883;SDS011;3987;51.458;7.238;2022-10-31T08:26:33;24.23;;;14.50;;
7883;SDS011;3987;51.458;7.238;2022-10-31T08:28:58;12.63;;;11.47;;
7883;SDS011;3987;51.458;7.238;2022-10-31T08:31:27;22.67;;;12.20;;
7883;SDS011;3987;51.458;7.238;2022-10-31T08:34:11;20.92;;;14.80;;
7883;SDS011;3987;51.458;7.238;2022-10-31T08:36:52;16.30;;;11.83;;
7883;SDS011;3987;51.458;7.238;2022-10-31T08:39:25;17.63;;;12.50;;
7883;SDS011;3987;51.458;7.238;2022-10-31T08:41:51;23.00;;;12.23;;
7883;SDS011;3987;51.458;7.238;2022-10-31T08:44:17;21.60;;;12.07;;
7883;SDS011;3987;51.458;7.238;2022-10-31T08:46:42;17.53;;;11.80;;
7883;SDS011;3987;51.458;7.238;2022-10-31T08:49:08;25.07;;;12.90;;
7883;SDS011;3987;51.458;7.238;2022-10-31T08:51:33;21.83;;;12.87;;
7883;SDS011;3987;51.458;7.238;2022-10-31T08:53:59;20.30;;;12.63;;
7883;SDS011;3987;51.458;7.238;2022-10-31T08:56:54;21.50;;;11.90;;
7883;SDS011;3987;51.458;7.238;2022-10-31T08:59:31;19.10;;;13.53;;
7883;SDS011;3987;51.458;7.238;2022-10-31T09:02:20;22.67;;;12.33;;
7883;SDS011;3987;51.458;7.238;2022-10-31T09:04:47;19.93;;;12.60;;
7883;SDS011;3987;51.458;7.238;2022-10-31T09:07:12;20.83;;;12.67;;
7883;SDS011;3987;51.458;7.238;2022-10-31T09:09:38;19.10;;;12.60;;
7883;SDS011;3987;51.458;7.238;2022-10-31T09:12:03;19.27;;;12.53;;
7883;SDS011;3987;51.458;7.238;2022-10-31T09:14:55;19.37;;;12.80;;
7883;SDS011;3987;51.458;7.238;2022-10-31T09:17:31;17.33;;;12.80;;
7883;SDS011;3987;51.458;7.238;2022-10-31T09:20:29;21.57;;;12.43;;
7883;SDS011;3987;51.458;7.238;2022-10-31T09:23:00;24.50;;;12.83;;
7883;SDS011;3987;51.458;7.238;2022-10-31T09:25:28;20.03;;;12.57;;
7883;SDS011;3987;51.458;7.238;2022-10-31T09:28:23;25.80;;;12.53;;
7883;SDS011;3987;51.458;7.238;2022-10-31T09:30:51;21.83;;;13.37;;
7883;SDS011;3987;51.458;7.238;2022-10-31T09:33:37;25.87;;;13.10;;
7883;SDS011;3987;51.458;7.238;2022-10-31T09:36:38;25.37;;;12.73;;
7883;SDS011;3987;51.458;7.238;2022-10-31T09:39:06;20.53;;;12.23;;
7883;SDS011;3987;51.458;7.238;2022-10-31T09:52:47;23.37;;;13.60;;
7883;SDS011;3987;51.458;7.238;2022-10-31T09:55:30;21.70;;;13.43;;
7883;SDS011;3987;51.458;7.238;2022-10-31T09:57:57;21.57;;;13.53;;
7883;SDS011;3987;51.458;7.238;2022-10-31T10:00:23;21.43;;;13.23;;
7883;SDS011;3987;51.458;7.238;2022-10-31T10:06:14;22.23;;;13.07;;
7883;SDS011;3987;51.458;7.238;2022-10-31T10:09:03;18.63;;;12.40;;
7883;SDS011;3987;51.458;7.238;2022-10-31T10:11:52;21.13;;;11.97;;
7883;SDS011;3987;51.458;7.238;2022-10-31T10:14:33;18.33;;;12.70;;
7883;SDS011;3987;51.458;7.238;2022-10-31T10:20:18;23.17;;;13.27;;
7883;SDS011;3987;51.458;7.238;2022-10-31T10:25:23;20.33;;;13.33;;
7883;SDS011;3987;51.458;7.238;2022-10-31T10:30:47;18.47;;;12.80;;
7883;SDS011;3987;51.458;7.238;2022-10-31T10:33:27;20.50;;;12.83;;
7883;SDS011;3987;51.458;7.238;2022-10-31T10:36:06;22.57;;;13.67;;
7883;SDS011;3987;51.458;7.238;2022-10-31T10:38:37;21.33;;;12.97;;
7883;SDS011;3987;51.458;7.238;2022-10-31T10:41:17;23.10;;;15.30;;
7883;SDS011;3987;51.458;7.238;2022-10-31T10:43:45;21.50;;;14.43;;
7883;SDS011;3987;51.458;7.238;2022-10-31T10:49:12;25.83;;;14.57;;
7883;SDS011;3987;51.458;7.238;2022-10-31T10:54:15;18.60;;;13.47;;
7883;SDS011;3987;51.458;7.238;2022-10-31T10:56:53;21.33;;;14.40;;
7883;SDS011;3987;51.458;7.238;2022-10-31T10:59:25;22.43;;;14.53;;
7883;SDS011;3987;51.458;7.238;2022-10-31T11:01:51;18.97;;;13.83;;
7883;SDS011;3987;51.458;7.238;2022-10-31T11:07:03;23.70;;;14.67;;
7883;SDS011;3987;51.458;7.238;2022-10-31T11:09:32;18.53;;;13.70;;
7883;SDS011;3987;51.458;7.238;2022-10-31T11:11:58;24.90;;;14.50;;
7883;SDS011;3987;51.458;7.238;2022-10-31T11:14:25;23.97;;;14.30;;
7883;SDS011;3987;51.458;7.238;2022-10-31T11:16:54;22.40;;;12.97;;
7883;SDS011;3987;51.458;7.238;2022-10-31T11:19:31;24.07;;;15.77;;
7883;SDS011;3987;51.458;7.238;2022-10-31T11:22:05;25.20;;;13.87;;
7883;SDS011;3987;51.458;7.238;2022-10-31T11:24:39;25.33;;;14.83;;
7883;SDS011;3987;51.458;7.238;2022-10-31T11:27:21;21.40;;;15.30;;
7883;SDS011;3987;51.458;7.238;2022-10-31T11:29:48;22.53;;;14.13;;
7883;SDS011;3987;51.458;7.238;2022-10-31T11:32:24;21.00;;;14.07;;
7883;SDS011;3987;51.458;7.238;2022-10-31T11:34:56;18.27;;;11.60;;
7883;SDS011;3987;51.458;7.238;2022-10-31T11:37:24;20.20;;;12.67;;
7883;SDS011;3987;51.458;7.238;2022-10-31T11:39:55;21.33;;;12.20;;
7883;SDS011;3987;51.458;7.238;2022-10-31T11:42:22;19.60;;;11.40;;
7883;SDS011;3987;51.458;7.238;2022-10-31T11:44:52;14.30;;;10.63;;
7883;SDS011;3987;51.458;7.238;2022-10-31T11:47:21;21.13;;;11.07;;
7883;SDS011;3987;51.458;7.238;2022-10-31T11:49:50;15.03;;;10.27;;
7883;SDS011;3987;51.458;7.238;2022-10-31T11:52:17;22.70;;;11.37;;
7883;SDS011;3987;51.458;7.238;2022-10-31T11:54:47;13.10;;;10.40;;
7883;SDS011;3987;51.458;7.238;2022-10-31T11:59:52;15.57;;;10.57;;
7883;SDS011;3987;51.458;7.238;2022-10-31T12:02:19;17.77;;;10.30;;
7883;SDS011;3987;51.458;7.238;2022-10-31T12:04:46;16.70;;;10.17;;
7883;SDS011;3987;51.458;7.238;2022-10-31T12:07:15;12.70;;;10.03;;
7883;SDS011;3987;51.458;7.238;2022-10-31T12:09:40;25.47;;;10.70;;
7883;SDS011;3987;51.458;7.238;2022-10-31T12:17:55;14.17;;;9.17;;
7883;SDS011;3987;51.458;7.238;2022-10-31T12:20:33;16.20;;;9.57;;
7883;SDS011;3987;51.458;7.238;2022-10-31T12:25:51;18.23;;;9.87;;
7883;SDS011;3987;51.458;7.238;2022-10-31T12:41:45;9.10;;;7.60;;
7883;SDS011;3987;51.458;7.238;2022-10-31T12:44:40;12.87;;;8.50;;
7883;SDS011;3987;51.458;7.238;2022-10-31T12:47:20;9.90;;;7.57;;
7883;SDS011;3987;51.458;7.238;2022-10-31T12:50:22;10.10;;;7.50;;
7883;SDS011;3987;51.458;7.238;2022-10-31T12:56:22;12.70;;;7.03;;
7883;SDS011;3987;51.458;7.238;2022-10-31T12:59:29;11.37;;;6.27;;
7883;SDS011;3987;51.458;7.238;2022-10-31T13:02:09;10.97;;;6.53;;
7883;SDS011;3987;51.458;7.238;2022-10-31T13:04:57;14.37;;;6.00;;
7883;SDS011;3987;51.458;7.238;2022-10-31T13:07:27;10.10;;;6.07;;
7883;SDS011;3987;51.458;7.238;2022-10-31T13:12:37;10.50;;;5.57;;
7883;SDS011;3987;51.458;7.238;2022-10-31T13:15:18;10.20;;;5.97;;
7883;SDS011;3987;51.458;7.238;2022-10-31T13:17:46;8.30;;;5.80;;
7883;SDS011;3987;51.458;7.238;2022-10-31T13:20:28;13.30;;;6.10;;
7883;SDS011;3987;51.458;7.238;2022-10-31T13:25:44;7.07;;;5.70;;
7883;SDS011;3987;51.458;7.238;2022-10-31T13:28:23;8.73;;;6.00;;
7883;SDS011;3987;51.458;7.238;2022-10-31T13:31:05;7.80;;;5.53;;
7883;SDS011;3987;51.458;7.238;2022-10-31T13:33:35;10.37;;;5.30;;
7883;SDS011;3987;51.458;7.238;2022-10-31T13:36:42;9.60;;;5.57;;
7883;SDS011;3987;51.458;7.238;2022-10-31T13:44:14;5.60;;;4.67;;
7883;SDS011;3987;51.458;7.238;2022-10-31T13:46:43;11.37;;;5.80;;
7883;SDS011;3987;51.458;7.238;2022-10-31T13:51:53;6.50;;;5.43;;
7883;SDS011;3987;51.458;7.238;2022-10-31T13:54:33;11.53;;;5.00;;
7883;SDS011;3987;51.458;7.238;2022-10-31T13:56:59;9.47;;;5.53;;
7883;SDS011;3987;51.458;7.238;2022-10-31T13:59:25;8.80;;;5.53;;
7883;SDS011;3987;51.458;7.238;2022-10-31T14:01:56;9.83;;;5.33;;
7883;SDS011;3987;51.458;7.238;2022-10-31T14:04:23;6.87;;;5.10;;
7883;SDS011;3987;51.458;7.238;2022-10-31T14:06:54;7.60;;;5.30;;
7883;SDS011;3987;51.458;7.238;2022-10-31T14:12:21;8.10;;;5.20;;
7883;SDS011;3987;51.458;7.238;2022-10-31T14:14:55;8.43;;;4.93;;
7883;SDS011;3987;51.458;7.238;2022-10-31T14:17:25;5.27;;;4.40;;
7883;SDS011;3987;51.458;7.238;2022-10-31T14:20:02;11.43;;;5.10;;
7883;SDS011;3987;51.458;7.238;2022-10-31T14:22:29;5.37;;;4.30;;
7883;SDS011;3987;51.458;7.238;2022-10-31T14:24:56;10.90;;;4.70;;
7883;SDS011;3987;51.458;7.238;2022-10-31T14:29:50;7.73;;;4.93;;
7883;SDS011;3987;51.458;7.238;2022-10-31T14:32:22;7.47;;;4.77;;
7883;SDS011;3987;51.458;7.238;2022-10-31T14:34:52;6.67;;;5.17;;
7883;SDS011;3987;51.458;7.238;2022-10-31T14:51:17;6.90;;;4.50;;
7883;SDS011;3987;51.458;7.238;2022-10-31T14:53:51;8.17;;;4.70;;
7883;SDS011;3987;51.458;7.238;2022-10-31T14:56:23;7.93;;;4.83;;
7883;SDS011;3987;51.458;7.238;2022-10-31T14:58:50;9.47;;;4.77;;
7883;SDS011;3987;51.458;7.238;2022-10-31T15:01:22;6.93;;;4.60;;
7883;SDS011;3987;51.458;7.238;2022-10-31T15:03:48;9.90;;;4.60;;
7883;SDS011;3987;51.458;7.238;2022-10-31T15:06:14;6.67;;;4.50;;
7883;SDS011;3987;51.458;7.238;2022-10-31T15:08:45;5.13;;;4.57;;
7883;SDS011;3987;51.458;7.238;2022-10-31T15:11:19;8.93;;;4.70;;
7883;SDS011;3987;51.458;7.238;2022-10-31T15:13:52;8.40;;;4.40;;
7883;SDS011;3987;51.458;7.238;2022-10-31T15:16:22;12.40;;;5.37;;
7883;SDS011;3987;51.458;7.238;2022-10-31T15:18:52;10.93;;;5.27;;
7883;SDS011;3987;51.458;7.238;2022-10-31T15:21:19;10.07;;;4.50;;
7883;SDS011;3987;51.458;7.238;2022-10-31T15:23:45;5.97;;;4.53;;
7883;SDS011;3987;51.458;7.238;2022-10-31T15:26:19;7.97;;;4.53;;
7883;SDS011;3987;51.458;7.238;2022-10-31T15:28:46;6.27;;;4.67;;
7883;SDS011;3987;51.458;7.238;2022-10-31T15:31:23;8.57;;;5.10;;
7883;SDS011;3987;51.458;7.238;2022-10-31T15:33:49;7.20;;;4.90;;
7883;SDS011;3987;51.458;7.238;2022-10-31T15:36:19;8.10;;;5.13;;
7883;SDS011;3987;51.458;7.238;2022-10-31T15:38:46;11.77;;;5.60;;
7883;SDS011;3987;51.458;7.238;2022-10-31T15:41:26;8.23;;;4.80;;
7883;SDS011;3987;51.458;7.238;2022-10-31T15:43:53;9.73;;;4.83;;
7883;SDS011;3987;51.458;7.238;2022-10-31T15:46:19;10.37;;;4.37;;
7883;SDS011;3987;51.458;7.238;2022-10-31T15:48:45;9.30;;;5.10;;
7883;SDS011;3987;51.458;7.238;2022-10-31T15:51:11;4.70;;;4.30;;
7883;SDS011;3987;51.458;7.238;2022-10-31T15:53:48;9.37;;;4.57;;
7883;SDS011;3987;51.458;7.238;2022-10-31T15:56:19;5.70;;;4.33;;
7883;SDS011;3987;51.458;7.238;2022-10-31T15:58:47;6.23;;;4.20;;
7883;SDS011;3987;51.458;7.238;2022-10-31T16:06:31;6.70;;;4.40;;
7883;SDS011;3987;51.458;7.238;2022-10-31T16:08:57;8.97;;;5.07;;
7883;SDS011;3987;51.458;7.238;2022-10-31T16:11:33;10.47;;;4.37;;
7883;SDS011;3987;51.458;7.238;2022-10-31T16:14:02;5.00;;;4.50;;
7883;SDS011;3987;51.458;7.238;2022-10-31T16:16:45;5.03;;;4.33;;
7883;SDS011;3987;51.458;7.238;2022-10-31T16:19:20;5.23;;;4.73;;
7883;SDS011;3987;51.458;7.238;2022-10-31T16:21:52;6.43;;;4.77;;
7883;SDS011;3987;51.458;7.238;2022-10-31T16:26:52;10.27;;;4.53;;
7883;SDS011;3987;51.458;7.238;2022-10-31T16:29:24;8.33;;;4.80;;
7883;SDS011;3987;51.458;7.238;2022-10-31T16:31:51;4.47;;;4.13;;
7883;SDS011;3987;51.458;7.238;2022-10-31T16:34:20;10.37;;;3.77;;
7883;SDS011;3987;51.458;7.238;2022-10-31T16:36:46;4.30;;;3.97;;
7883;SDS011;3987;51.458;7.238;2022-10-31T16:39:13;6.50;;;3.93;;
7883;SDS011;3987;51.458;7.238;2022-10-31T16:41:42;4.47;;;4.07;;
7883;SDS011;3987;51.458;7.238;2022-10-31T16:44:14;6.40;;;4.20;;
7883;SDS011;3987;51.458;7.238;2022-10-31T16:46:44;7.77;;;6.53;;
7883;SDS011;3987;51.458;7.238;2022-10-31T16:49:09;7.37;;;4.80;;
7883;SDS011;3987;51.458;7.238;2022-10-31T16:51:35;10.40;;;6.43;;
7883;SDS011;3987;51.458;7.238;2022-10-31T16:54:00;13.90;;;11.00;;
7883;SDS011;3987;51.458;7.238;2022-10-31T16:56:29;4.20;;;3.77;;
7883;SDS011;3987;51.458;7.238;2022-10-31T16:58:57;4.70;;;4.37;;
7883;SDS011;3987;51.458;7.238;2022-10-31T17:01:23;6.67;;;4.10;;
7883;SDS011;3987;51.458;7.238;2022-10-31T17:03:48;9.10;;;3.37;;
7883;SDS011;3987;51.458;7.238;2022-10-31T17:06:14;12.03;;;4.07;;
7883;SDS011;3987;51.458;7.238;2022-10-31T17:08:40;5.67;;;3.83;;
7883;SDS011;3987;51.458;7.238;2022-10-31T17:11:05;11.17;;;3.80;;
7883;SDS011;3987;51.458;7.238;2022-10-31T17:13:33;4.83;;;3.60;;
7883;SDS011;3987;51.458;7.238;2022-10-31T17:15:59;5.13;;;3.57;;
7883;SDS011;3987;51.458;7.238;2022-10-31T17:18:26;4.17;;;3.03;;
7883;SDS011;3987;51.458;7.238;2022-10-31T17:20:55;6.40;;;4.10;;
7883;SDS011;3987;51.458;7.238;2022-10-31T17:23:23;5.63;;;3.90;;
7883;SDS011;3987;51.458;7.238;2022-10-31T17:25:48;8.37;;;3.17;;